This is the latest recevied weather packets stored in our database for station/object WB0VGI-1. If no packets are shown the sender has not sent any weather packets the latest 10 day(s).
| Time | Temp. | Humidity | Pressure | Rain* | Wind** | Luminosity | Snow |
|---|---|---|---|---|---|---|---|
| 1778306826 | 11.11° C | 44% | 1005.7 hPa | 0 mm | - | - | - |
| 1778305625 | 11.11° C | 43% | 1006 hPa | 0 mm | - | - | - |
| 1778304425 | 11.67° C | 42% | 1005.8 hPa | 0 mm | - | - | - |
| 1778303226 | 11.11° C | 42% | 1006 hPa | 0 mm | - | - | - |
| 1778302025 | 11.67° C | 41% | 1006 hPa | 0 mm | - | - | - |
| 1778300825 | 12.22° C | 40% | 1006.4 hPa | 0 mm | - | - | - |
| 1778299625 | 13.33° C | 39% | 1006.2 hPa | 0 mm | - | - | - |
| 1778298425 | 13.89° C | 39% | 1006.1 hPa | 0 mm | - | - | - |
| 1778297225 | 13.89° C | 39% | 1005.8 hPa | 0 mm | - | - | - |
| 1778296025 | 14.44° C | 39% | 1005.6 hPa | 0 mm | - | - | - |
| 1778294825 | 15° C | 39% | 1005.4 hPa | 0 mm | - | - | - |
| 1778293625 | 16.11° C | 38% | 1005.1 hPa | 0 mm | - | - | - |
| 1778292425 | 16.67° C | 38% | 1004.5 hPa | 0 mm | - | - | - |
| 1778291225 | 17.78° C | 35% | 1004 hPa | 0 mm | - | - | - |
| 1778290025 | 18.33° C | 32% | 1003.6 hPa | 0 mm | - | - | - |
| 1778288825 | 18.89° C | 29% | 1003.3 hPa | 0 mm | - | - | - |
| 1778287625 | 19.44° C | 28% | 1003.3 hPa | 0 mm | - | - | - |
| 1778286425 | 20° C | 27% | 1003.1 hPa | 0 mm | - | - | - |
| 1778285225 | 21.11° C | 26% | 1003.2 hPa | 0 mm | - | - | - |
| 1778284025 | 21.11° C | 27% | 1003.3 hPa | 0 mm | - | - | - |
| 1778282825 | 21.11° C | 26% | 1003.4 hPa | 0 mm | - | - | - |
| 1778281625 | 20° C | 28% | 1003.7 hPa | 0 mm | - | - | - |
| 1778280425 | 21.11° C | 27% | 1003.8 hPa | 0 mm | - | - | - |
| 1778279225 | 21.67° C | 27% | 1003.9 hPa | 0 mm | - | - | - |
| 1778278025 | 20° C | 29% | 1004.4 hPa | 0 mm | - | - | - |
* Rain latest hour (hover to see other rain measurements)
** Current wind speed in m/s (hover to see current wind gust speed)